sensor_id;sensor_type;location;lat;lon;timestamp;pressure;altitude;pressure_sealevel;temperature;humidity
79455;BME280;68900;52.134;5.420;2023-12-04T00:02:15;101476.56;;;0.89;100.00
79455;BME280;68900;52.134;5.420;2023-12-04T00:04:42;101472.97;;;0.91;100.00
79455;BME280;68900;52.134;5.420;2023-12-04T00:07:26;101469.38;;;0.92;100.00
79455;BME280;68900;52.134;5.420;2023-12-04T00:10:27;101463.13;;;0.93;100.00
79455;BME280;68900;52.134;5.420;2023-12-04T00:13:09;101464.94;;;0.92;100.00
79455;BME280;68900;52.134;5.420;2023-12-04T00:15:48;101464.94;;;0.92;100.00
79455;BME280;68900;52.134;5.420;2023-12-04T00:18:20;101458.78;;;0.92;100.00
79455;BME280;68900;52.134;5.420;2023-12-04T00:20:53;101452.50;;;0.93;100.00
79455;BME280;68900;52.134;5.420;2023-12-04T00:23:27;101449.00;;;0.92;100.00
79455;BME280;68900;52.134;5.420;2023-12-04T00:26:22;101455.16;;;0.93;100.00
79455;BME280;68900;52.134;5.420;2023-12-04T00:28:49;101446.41;;;0.91;100.00
79455;BME280;68900;52.134;5.420;2023-12-04T00:31:18;101447.28;;;0.91;100.00
79455;BME280;68900;52.134;5.420;2023-12-04T00:33:51;101442.84;;;0.92;100.00
79455;BME280;68900;52.134;5.420;2023-12-04T00:36:18;101439.31;;;0.91;100.00
79455;BME280;68900;52.134;5.420;2023-12-04T00:38:48;101434.94;;;0.90;100.00
79455;BME280;68900;52.134;5.420;2023-12-04T00:41:16;101432.28;;;0.90;100.00
79455;BME280;68900;52.134;5.420;2023-12-04T00:43:43;101434.88;;;0.92;100.00
79455;BME280;68900;52.134;5.420;2023-12-04T00:46:14;101432.22;;;0.92;100.00
79455;BME280;68900;52.134;5.420;2023-12-04T00:48:42;101429.47;;;0.93;100.00
79455;BME280;68900;52.134;5.420;2023-12-04T00:51:12;101435.63;;;0.94;100.00
79455;BME280;68900;52.134;5.420;2023-12-04T00:53:41;101417.22;;;0.91;100.00
79455;BME280;68900;52.134;5.420;2023-12-04T00:56:10;101418.06;;;0.91;100.00
79455;BME280;68900;52.134;5.420;2023-12-04T00:58:49;101411.81;;;0.92;100.00
79455;BME280;68900;52.134;5.420;2023-12-04T01:01:16;101416.28;;;0.92;100.00
79455;BME280;68900;52.134;5.420;2023-12-04T01:03:49;101415.41;;;0.91;100.00
79455;BME280;68900;52.134;5.420;2023-12-04T01:06:23;101409.19;;;0.92;100.00
79455;BME280;68900;52.134;5.420;2023-12-04T01:08:52;101412.66;;;0.93;100.00
79455;BME280;68900;52.134;5.420;2023-12-04T01:11:19;101410.97;;;0.92;100.00
79455;BME280;68900;52.134;5.420;2023-12-04T01:14:00;101410.88;;;0.93;100.00
79455;BME280;68900;52.134;5.420;2023-12-04T01:16:27;101414.31;;;0.95;100.00
79455;BME280;68900;52.134;5.420;2023-12-04T01:18:56;101415.03;;;0.99;100.00
79455;BME280;68900;52.134;5.420;2023-12-04T01:21:25;101408.16;;;0.95;100.00
79455;BME280;68900;52.134;5.420;2023-12-04T01:23:58;101401.97;;;0.94;100.00
79455;BME280;68900;52.134;5.420;2023-12-04T01:26:24;101407.22;;;0.96;100.00
79455;BME280;68900;52.134;5.420;2023-12-04T01:28:51;101396.59;;;0.96;100.00
79455;BME280;68900;52.134;5.420;2023-12-04T01:31:20;101392.16;;;0.96;100.00
79455;BME280;68900;52.134;5.420;2023-12-04T01:33:58;101388.63;;;0.96;100.00
79455;BME280;68900;52.134;5.420;2023-12-04T01:36:28;101389.50;;;0.96;100.00
79455;BME280;68900;52.134;5.420;2023-12-04T01:38:55;101385.09;;;0.95;100.00
79455;BME280;68900;52.134;5.420;2023-12-04T01:41:36;101384.25;;;0.95;100.00
79455;BME280;68900;52.134;5.420;2023-12-04T01:44:04;101378.06;;;0.94;100.00
79455;BME280;68900;52.134;5.420;2023-12-04T01:46:31;101379.00;;;0.93;100.00
79455;BME280;68900;52.134;5.420;2023-12-04T01:48:59;101379.00;;;0.93;100.00
79455;BME280;68900;52.134;5.420;2023-12-04T01:51:33;101375.41;;;0.94;100.00
79455;BME280;68900;52.134;5.420;2023-12-04T01:54:03;101369.25;;;0.94;100.00
79455;BME280;68900;52.134;5.420;2023-12-04T01:56:33;101369.25;;;0.94;100.00
79455;BME280;68900;52.134;5.420;2023-12-04T01:59:01;101372.75;;;0.94;100.00
79455;BME280;68900;52.134;5.420;2023-12-04T02:01:30;101363.88;;;0.95;100.00
79455;BME280;68900;52.134;5.420;2023-12-04T02:04:01;101365.59;;;0.96;100.00
79455;BME280;68900;52.134;5.420;2023-12-04T02:06:28;101356.69;;;0.97;100.00
79455;BME280;68900;52.134;5.420;2023-12-04T02:09:01;101361.22;;;0.95;100.00
79455;BME280;68900;52.134;5.420;2023-12-04T02:11:28;101355.97;;;0.94;100.00
79455;BME280;68900;52.134;5.420;2023-12-04T02:13:55;101345.44;;;0.92;100.00
79455;BME280;68900;52.134;5.420;2023-12-04T02:16:23;101344.56;;;0.92;100.00
79455;BME280;68900;52.134;5.420;2023-12-04T02:18:52;101342.00;;;0.90;100.00
79455;BME280;68900;52.134;5.420;2023-12-04T02:21:25;101336.63;;;0.92;100.00
79455;BME280;68900;52.134;5.420;2023-12-04T02:23:53;101338.31;;;0.93;100.00
79455;BME280;68900;52.134;5.420;2023-12-04T02:26:31;101341.81;;;0.93;99.78
79455;BME280;68900;52.134;5.420;2023-12-04T02:29:15;101345.34;;;0.94;100.00
79455;BME280;68900;52.134;5.420;2023-12-04T02:31:48;101340.97;;;0.93;100.00
79455;BME280;68900;52.134;5.420;2023-12-04T02:34:16;101332.06;;;0.94;100.00
79455;BME280;68900;52.134;5.420;2023-12-04T02:36:48;101327.63;;;0.94;100.00
79455;BME280;68900;52.134;5.420;2023-12-04T02:39:18;101325.81;;;0.95;100.00
79455;BME280;68900;52.134;5.420;2023-12-04T02:41:51;101321.38;;;0.95;100.00
79455;BME280;68900;52.134;5.420;2023-12-04T02:44:19;101308.09;;;0.95;100.00
79455;BME280;68900;52.134;5.420;2023-12-04T02:46:47;101301.00;;;0.96;100.00
79455;BME280;68900;52.134;5.420;2023-12-04T02:49:14;101304.56;;;0.95;99.83
79455;BME280;68900;52.134;5.420;2023-12-04T02:51:41;101294.88;;;0.94;99.67
79455;BME280;68900;52.134;5.420;2023-12-04T02:54:09;101294.03;;;0.93;99.50
79455;BME280;68900;52.134;5.420;2023-12-04T02:56:35;101286.91;;;0.94;99.79
79455;BME280;68900;52.134;5.420;2023-12-04T02:59:02;101288.63;;;0.95;99.86
79455;BME280;68900;52.134;5.420;2023-12-04T03:01:29;101286.91;;;0.94;99.16
79455;BME280;68900;52.134;5.420;2023-12-04T03:03:56;101290.38;;;0.96;99.26
79455;BME280;68900;52.134;5.420;2023-12-04T03:06:25;101288.72;;;0.93;99.47
79455;BME280;68900;52.134;5.420;2023-12-04T03:08:52;101278.03;;;0.95;99.78
79455;BME280;68900;52.134;5.420;2023-12-04T03:11:19;101280.69;;;0.95;99.29
79455;BME280;68900;52.134;5.420;2023-12-04T03:13:49;101273.63;;;0.94;99.71
79455;BME280;68900;52.134;5.420;2023-12-04T03:16:19;101265.69;;;0.94;98.92
79455;BME280;68900;52.134;5.420;2023-12-04T03:18:47;101259.50;;;0.93;99.31
79455;BME280;68900;52.134;5.420;2023-12-04T03:21:14;101262.16;;;0.93;99.07
79455;BME280;68900;52.134;5.420;2023-12-04T03:23:44;101262.09;;;0.95;99.12
79455;BME280;68900;52.134;5.420;2023-12-04T03:26:11;101255.84;;;0.96;99.13
79455;BME280;68900;52.134;5.420;2023-12-04T03:28:40;101254.97;;;0.95;98.56
79455;BME280;68900;52.134;5.420;2023-12-04T03:31:14;101246.16;;;0.95;98.93
79455;BME280;68900;52.134;5.420;2023-12-04T03:33:41;101242.56;;;0.96;98.98
79455;BME280;68900;52.134;5.420;2023-12-04T03:36:08;101246.94;;;0.97;98.49
79455;BME280;68900;52.134;5.420;2023-12-04T03:38:40;101235.53;;;0.95;98.56
79455;BME280;68900;52.134;5.420;2023-12-04T03:41:15;101233.81;;;0.94;98.34
79455;BME280;68900;52.134;5.420;2023-12-04T03:43:48;101224.97;;;0.93;98.49
79455;BME280;68900;52.134;5.420;2023-12-04T03:46:21;101231.25;;;0.92;98.34
79455;BME280;68900;52.134;5.420;2023-12-04T03:52:40;101218.91;;;0.91;98.15
79455;BME280;68900;52.134;5.420;2023-12-04T03:58:58;101211.69;;;0.93;97.94
79455;BME280;68900;52.134;5.420;2023-12-04T04:01:41;101206.31;;;0.95;97.89
79455;BME280;68900;52.134;5.420;2023-12-04T04:04:41;101201.88;;;0.95;98.14
79455;BME280;68900;52.134;5.420;2023-12-04T04:07:41;101201.94;;;0.94;97.38
79455;BME280;68900;52.134;5.420;2023-12-04T04:10:40;101205.47;;;0.94;97.56
79455;BME280;68900;52.134;5.420;2023-12-04T04:20:46;101183.34;;;0.94;97.35
79455;BME280;68900;52.134;5.420;2023-12-04T04:23:46;101174.53;;;0.93;96.71
79455;BME280;68900;52.134;5.420;2023-12-04T04:27:10;101178.84;;;0.96;96.76
79455;BME280;68900;52.134;5.420;2023-12-04T04:30:12;101176.19;;;0.96;96.59
79455;BME280;68900;52.134;5.420;2023-12-04T04:34:04;101169.06;;;0.96;96.71
79455;BME280;68900;52.134;5.420;2023-12-04T04:37:32;101161.00;;;0.98;96.12
79455;BME280;68900;52.134;5.420;2023-12-04T04:41:25;101161.78;;;1.00;96.30
79455;BME280;68900;52.134;5.420;2023-12-04T04:59:50;101152.88;;;1.01;96.02
79455;BME280;68900;52.134;5.420;2023-12-04T05:06:56;101152.03;;;1.00;95.73
79455;BME280;68900;52.134;5.420;2023-12-04T05:09:48;101152.88;;;1.01;95.94
79455;BME280;68900;52.134;5.420;2023-12-04T05:23:43;101137.88;;;1.00;95.56
79455;BME280;68900;52.134;5.420;2023-12-04T05:55:36;101093.00;;;0.95;94.99
79455;BME280;68900;52.134;5.420;2023-12-04T05:59:32;101092.91;;;0.97;95.14
79455;BME280;68900;52.134;5.420;2023-12-04T06:06:48;101098.97;;;0.99;94.82
79455;BME280;68900;52.134;5.420;2023-12-04T06:10:26;101075.94;;;0.99;94.06
79455;BME280;68900;52.134;5.420;2023-12-04T06:21:22;101086.50;;;1.01;94.21
79455;BME280;68900;52.134;5.420;2023-12-04T06:35:24;101075.88;;;1.01;94.21
79455;BME280;68900;52.134;5.420;2023-12-04T06:47:40;101048.38;;;1.02;93.32
79455;BME280;68900;52.134;5.420;2023-12-04T06:50:21;101037.75;;;1.02;92.76
79455;BME280;68900;52.134;5.420;2023-12-04T07:05:19;101026.28;;;1.01;91.96
79455;BME280;68900;52.134;5.420;2023-12-04T07:29:52;101004.75;;;1.06;91.98
79455;BME280;68900;52.134;5.420;2023-12-04T07:32:36;101007.41;;;1.06;91.84
79455;BME280;68900;52.134;5.420;2023-12-04T07:35:21;101006.56;;;1.05;91.81
79455;BME280;68900;52.134;5.420;2023-12-04T07:37:53;101003.78;;;1.07;91.57
79455;BME280;68900;52.134;5.420;2023-12-04T07:40:30;101001.06;;;1.08;90.89
79455;BME280;68900;52.134;5.420;2023-12-04T07:43:04;100997.47;;;1.09;91.35
79455;BME280;68900;52.134;5.420;2023-12-04T07:45:31;101000.97;;;1.10;91.06
79455;BME280;68900;52.134;5.420;2023-12-04T07:51:50;101002.78;;;1.09;90.66
79455;BME280;68900;52.134;5.420;2023-12-04T07:54:17;101000.03;;;1.11;90.47
79455;BME280;68900;52.134;5.420;2023-12-04T07:56:44;100989.41;;;1.11;90.49
79455;BME280;68900;52.134;5.420;2023-12-04T07:59:13;100999.00;;;1.13;90.21
79455;BME280;68900;52.134;5.420;2023-12-04T08:01:46;100994.63;;;1.12;89.43
79455;BME280;68900;52.134;5.420;2023-12-04T08:04:16;100994.63;;;1.12;89.89
79455;BME280;68900;52.134;5.420;2023-12-04T08:06:43;100991.03;;;1.13;89.79
79455;BME280;68900;52.134;5.420;2023-12-04T08:09:11;100997.03;;;1.17;89.73
79455;BME280;68900;52.134;5.420;2023-12-04T08:11:38;100992.56;;;1.17;89.51
79455;BME280;68900;52.134;5.420;2023-12-04T08:14:05;100994.38;;;1.17;89.38
79455;BME280;68900;52.134;5.420;2023-12-04T08:16:32;100997.88;;;1.17;89.16
79455;BME280;68900;52.134;5.420;2023-12-04T08:18:59;100998.72;;;1.18;89.39
79455;BME280;68900;52.134;5.420;2023-12-04T08:21:27;100995.16;;;1.19;89.28
79455;BME280;68900;52.134;5.420;2023-12-04T08:23:55;100997.81;;;1.19;89.21
79455;BME280;68900;52.134;5.420;2023-12-04T08:26:23;101002.19;;;1.20;88.74
79455;BME280;68900;52.134;5.420;2023-12-04T08:28:51;100998.66;;;1.19;88.49
79455;BME280;68900;52.134;5.420;2023-12-04T08:31:21;101000.28;;;1.22;88.92
79455;BME280;68900;52.134;5.420;2023-12-04T08:33:47;100987.91;;;1.21;88.12
79455;BME280;68900;52.134;5.420;2023-12-04T08:36:14;100991.38;;;1.23;88.54
79455;BME280;68900;52.134;5.420;2023-12-04T08:38:41;100984.34;;;1.22;87.71
79455;BME280;68900;52.134;5.420;2023-12-04T08:41:09;100975.41;;;1.23;87.84
79455;BME280;68900;52.134;5.420;2023-12-04T08:43:35;100981.41;;;1.26;88.15
79455;BME280;68900;52.134;5.420;2023-12-04T08:46:02;100966.41;;;1.25;87.22
79455;BME280;68900;52.134;5.420;2023-12-04T08:48:29;100961.88;;;1.27;87.47
79455;BME280;68900;52.134;5.420;2023-12-04T08:50:58;100966.25;;;1.28;87.71
79455;BME280;68900;52.134;5.420;2023-12-04T08:53:25;100963.47;;;1.30;86.50
79455;BME280;68900;52.134;5.420;2023-12-04T08:55:51;100959.88;;;1.31;86.15
79455;BME280;68900;52.134;5.420;2023-12-04T08:58:19;100961.59;;;1.32;86.43
79455;BME280;68900;52.134;5.420;2023-12-04T09:00:46;100958.00;;;1.33;86.60
79455;BME280;68900;52.134;5.420;2023-12-04T09:03:13;100960.47;;;1.36;86.54
79455;BME280;68900;52.134;5.420;2023-12-04T09:05:52;100958.59;;;1.38;86.22
79455;BME280;68900;52.134;5.420;2023-12-04T09:08:19;100949.66;;;1.39;86.42
79455;BME280;68900;52.134;5.420;2023-12-04T09:11:02;100944.34;;;1.39;86.24
79455;BME280;68900;52.134;5.420;2023-12-04T09:13:48;100942.47;;;1.41;85.72
79455;BME280;68900;52.134;5.420;2023-12-04T09:16:15;100940.56;;;1.43;85.87
79455;BME280;68900;52.134;5.420;2023-12-04T09:18:42;100939.44;;;1.47;86.18
79455;BME280;68900;52.134;5.420;2023-12-04T09:21:09;100943.91;;;1.47;85.38
79455;BME280;68900;52.134;5.420;2023-12-04T09:23:36;100938.38;;;1.50;85.03
79455;BME280;68900;52.134;5.420;2023-12-04T09:26:03;100936.59;;;1.50;85.66
79455;BME280;68900;52.134;5.420;2023-12-04T09:28:29;100931.94;;;1.54;84.93
79455;BME280;68900;52.134;5.420;2023-12-04T09:30:56;100927.50;;;1.54;84.91
79455;BME280;68900;52.134;5.420;2023-12-04T09:33:25;100934.31;;;1.58;83.49
79455;BME280;68900;52.134;5.420;2023-12-04T09:35:53;100935.09;;;1.60;83.19
79455;BME280;68900;52.134;5.420;2023-12-04T09:38:19;100940.22;;;1.63;84.10
79455;BME280;68900;52.134;5.420;2023-12-04T09:40:46;100938.44;;;1.64;83.57
79455;BME280;68900;52.134;5.420;2023-12-04T09:43:13;100942.72;;;1.66;83.04
79455;BME280;68900;52.134;5.420;2023-12-04T09:45:43;100933.69;;;1.69;83.08
79455;BME280;68900;52.134;5.420;2023-12-04T09:48:11;100926.56;;;1.69;82.95
79455;BME280;68900;52.134;5.420;2023-12-04T09:50:38;100929.16;;;1.71;83.63
79455;BME280;68900;52.134;5.420;2023-12-04T09:53:06;100925.44;;;1.73;83.15
79455;BME280;68900;52.134;5.420;2023-12-04T09:55:37;100921.84;;;1.74;82.22
79455;BME280;68900;52.134;5.420;2023-12-04T09:58:04;100926.88;;;1.79;82.70
79455;BME280;68900;52.134;5.420;2023-12-04T10:00:34;100923.25;;;1.80;82.19
79455;BME280;68900;52.134;5.420;2023-12-04T10:03:22;100917.75;;;1.83;81.97
79455;BME280;68900;52.134;5.420;2023-12-04T10:05:48;100919.34;;;1.86;82.22
79455;BME280;68900;52.134;5.420;2023-12-04T10:08:15;100919.19;;;1.89;81.58
79455;BME280;68900;52.134;5.420;2023-12-04T10:10:43;100915.38;;;1.93;81.84
79455;BME280;68900;52.134;5.420;2023-12-04T10:13:13;100905.47;;;1.95;80.77
79455;BME280;68900;52.134;5.420;2023-12-04T10:16:02;100902.66;;;1.98;81.23
79455;BME280;68900;52.134;5.420;2023-12-04T10:18:30;100893.72;;;1.99;80.65
79455;BME280;68900;52.134;5.420;2023-12-04T10:20:59;100890.78;;;2.03;81.47
79455;BME280;68900;52.134;5.420;2023-12-04T10:23:43;100886.19;;;2.05;80.77
79455;BME280;68900;52.134;5.420;2023-12-04T10:26:14;100887.72;;;2.09;81.02
79455;BME280;68900;52.134;5.420;2023-12-04T10:29:01;100887.53;;;2.12;80.47
79455;BME280;68900;52.134;5.420;2023-12-04T10:31:34;100878.50;;;2.15;80.95
79455;BME280;68900;52.134;5.420;2023-12-04T10:34:04;100877.34;;;2.19;79.93
79455;BME280;68900;52.134;5.420;2023-12-04T10:36:32;100870.13;;;2.21;80.79
79455;BME280;68900;52.134;5.420;2023-12-04T10:39:00;100867.34;;;2.22;80.61
79455;BME280;68900;52.134;5.420;2023-12-04T10:41:29;100858.34;;;2.25;79.62
79455;BME280;68900;52.134;5.420;2023-12-04T10:43:58;100861.00;;;2.25;79.70
79455;BME280;68900;52.134;5.420;2023-12-04T10:46:36;100848.44;;;2.27;79.31
79455;BME280;68900;52.134;5.420;2023-12-04T10:49:04;100847.41;;;2.30;79.61
79455;BME280;68900;52.134;5.420;2023-12-04T10:51:33;100846.47;;;2.31;79.34
79455;BME280;68900;52.134;5.420;2023-12-04T10:54:03;100845.38;;;2.33;79.55
79455;BME280;68900;52.134;5.420;2023-12-04T10:56:40;100838.34;;;2.32;80.04
79455;BME280;68900;52.134;5.420;2023-12-04T10:59:15;100829.41;;;2.33;79.76
79455;BME280;68900;52.134;5.420;2023-12-04T11:01:44;100838.34;;;2.32;79.47
79455;BME280;68900;52.134;5.420;2023-12-04T11:04:18;100830.19;;;2.35;79.41
79455;BME280;68900;52.134;5.420;2023-12-04T11:06:48;100821.34;;;2.35;78.66
79455;BME280;68900;52.134;5.420;2023-12-04T11:09:17;100815.91;;;2.36;79.74
79455;BME280;68900;52.134;5.420;2023-12-04T11:11:50;100814.22;;;2.35;79.34
79455;BME280;68900;52.134;5.420;2023-12-04T11:14:20;100806.22;;;2.35;79.93
79455;BME280;68900;52.134;5.420;2023-12-04T11:16:53;100799.94;;;2.36;79.26
79455;BME280;68900;52.134;5.420;2023-12-04T11:19:29;100798.13;;;2.37;79.47
79455;BME280;68900;52.134;5.420;2023-12-04T11:22:03;100791.84;;;2.38;79.36
79455;BME280;68900;52.134;5.420;2023-12-04T11:24:31;100792.72;;;2.38;79.21
79455;BME280;68900;52.134;5.420;2023-12-04T11:26:58;100788.16;;;2.40;79.51
79455;BME280;68900;52.134;5.420;2023-12-04T11:29:28;100783.88;;;2.38;79.56
79455;BME280;68900;52.134;5.420;2023-12-04T11:31:55;100774.19;;;2.37;80.03
79455;BME280;68900;52.134;5.420;2023-12-04T11:34:24;100776.84;;;2.37;79.45
79455;BME280;68900;52.134;5.420;2023-12-04T11:36:51;100763.44;;;2.38;79.13
79455;BME280;68900;52.134;5.420;2023-12-04T11:39:20;100768.66;;;2.40;79.78
79455;BME280;68900;52.134;5.420;2023-12-04T11:41:52;100766.75;;;2.42;79.46
79455;BME280;68900;52.134;5.420;2023-12-04T11:44:19;100760.56;;;2.41;79.73
79455;BME280;68900;52.134;5.420;2023-12-04T11:47:06;100764.00;;;2.43;78.91
79455;BME280;68900;52.134;5.420;2023-12-04T11:49:33;100758.66;;;2.43;79.55
79455;BME280;68900;52.134;5.420;2023-12-04T11:52:03;100761.31;;;2.43;79.97
79455;BME280;68900;52.134;5.420;2023-12-04T12:23:44;100721.63;;;2.40;80.99
79455;BME280;68900;52.134;5.420;2023-12-04T12:30:00;100716.72;;;2.47;80.60
79455;BME280;68900;52.134;5.420;2023-12-04T12:32:27;100716.63;;;2.48;80.32
79455;BME280;68900;52.134;5.420;2023-12-04T12:34:58;100717.56;;;2.47;80.47
79455;BME280;68900;52.134;5.420;2023-12-04T12:37:28;100725.56;;;2.47;80.75
79455;BME280;68900;52.134;5.420;2023-12-04T12:39:55;100716.72;;;2.47;79.93
79455;BME280;68900;52.134;5.420;2023-12-04T12:42:28;100702.69;;;2.45;80.32
79455;BME280;68900;52.134;5.420;2023-12-04T12:45:00;100702.69;;;2.45;80.15
79455;BME280;68900;52.134;5.420;2023-12-04T12:47:31;100698.31;;;2.44;80.40
79455;BME280;68900;52.134;5.420;2023-12-04T12:50:00;100685.84;;;2.44;79.46
79455;BME280;68900;52.134;5.420;2023-12-04T12:52:27;100681.38;;;2.45;80.46
79455;BME280;68900;52.134;5.420;2023-12-04T12:55:00;100682.97;;;2.47;80.37
79455;BME280;68900;52.134;5.420;2023-12-04T12:57:27;100672.22;;;2.49;80.78
79455;BME280;68900;52.134;5.420;2023-12-04T12:59:54;100659.88;;;2.48;80.95
79455;BME280;68900;52.134;5.420;2023-12-04T13:02:24;100661.78;;;2.46;80.62
79455;BME280;68900;52.134;5.420;2023-12-04T13:04:51;100663.56;;;2.45;80.25
79455;BME280;68900;52.134;5.420;2023-12-04T13:07:18;100660.19;;;2.43;80.04
79455;BME280;68900;52.134;5.420;2023-12-04T13:09:45;100649.63;;;2.42;80.27
79455;BME280;68900;52.134;5.420;2023-12-04T13:12:13;100649.53;;;2.43;80.92
79455;BME280;68900;52.134;5.420;2023-12-04T13:14:41;100647.72;;;2.44;80.03
79455;BME280;68900;52.134;5.420;2023-12-04T13:17:08;100646.03;;;2.43;80.70
79455;BME280;68900;52.134;5.420;2023-12-04T13:19:43;100643.25;;;2.44;80.62
79455;BME280;68900;52.134;5.420;2023-12-04T13:22:13;100636.00;;;2.46;80.27
79455;BME280;68900;52.134;5.420;2023-12-04T13:24:42;100626.53;;;2.42;80.84
79455;BME280;68900;52.134;5.420;2023-12-04T13:27:13;100628.47;;;2.40;80.54
79455;BME280;68900;52.134;5.420;2023-12-04T13:29:43;100624.94;;;2.40;80.66
79455;BME280;68900;52.134;5.420;2023-12-04T13:32:09;100621.44;;;2.39;80.57
79455;BME280;68900;52.134;5.420;2023-12-04T13:34:39;100618.66;;;2.53;82.49
79455;BME280;68900;52.134;5.420;2023-12-04T13:37:15;100610.78;;;2.52;81.07
79455;BME280;68900;52.134;5.420;2023-12-04T13:39:42;100603.13;;;2.47;81.56
79455;BME280;68900;52.134;5.420;2023-12-04T13:42:15;100596.22;;;2.45;81.26
79455;BME280;68900;52.134;5.420;2023-12-04T15:20:59;100504.84;;;2.32;86.61
79455;BME280;68900;52.134;5.420;2023-12-04T15:23:29;100504.03;;;2.31;87.08
79455;BME280;68900;52.134;5.420;2023-12-04T15:25:56;100497.00;;;2.30;87.32
79455;BME280;68900;52.134;5.420;2023-12-04T15:28:23;100496.22;;;2.28;87.03
79455;BME280;68900;52.134;5.420;2023-12-04T15:30:51;100490.19;;;2.26;87.96
79455;BME280;68900;52.134;5.420;2023-12-04T15:33:17;100488.38;;;2.27;87.52
79455;BME280;68900;52.134;5.420;2023-12-04T15:35:47;100483.16;;;2.25;87.84
79455;BME280;68900;52.134;5.420;2023-12-04T15:38:13;100495.50;;;2.26;87.96
79455;BME280;68900;52.134;5.420;2023-12-04T15:40:46;100485.81;;;2.25;88.58
79455;BME280;68900;52.134;5.420;2023-12-04T15:43:14;100477.94;;;2.23;88.50
79455;BME280;68900;52.134;5.420;2023-12-04T15:45:41;100475.25;;;2.23;89.01
79455;BME280;68900;52.134;5.420;2023-12-04T15:56:11;100477.41;;;2.18;89.69
79455;BME280;68900;52.134;5.420;2023-12-04T15:59:21;100468.56;;;2.18;90.52
79455;BME280;68900;52.134;5.420;2023-12-04T16:01:55;100474.19;;;2.13;90.87
79455;BME280;68900;52.134;5.420;2023-12-04T16:04:51;100474.34;;;2.12;90.65
79455;BME280;68900;52.134;5.420;2023-12-04T16:08:35;100462.94;;;2.10;91.75
79455;BME280;68900;52.134;5.420;2023-12-04T16:10:40;100458.56;;;2.09;91.03
79455;BME280;68900;52.134;5.420;2023-12-04T16:13:20;100451.44;;;2.09;92.15
79455;BME280;68900;52.134;5.420;2023-12-04T16:15:46;100448.91;;;2.08;92.48
79455;BME280;68900;52.134;5.420;2023-12-04T16:18:15;100444.53;;;2.07;92.70
79455;BME280;68900;52.134;5.420;2023-12-04T16:20:45;100443.69;;;2.06;92.77
79455;BME280;68900;52.134;5.420;2023-12-04T16:23:13;100444.53;;;2.07;93.05
79455;BME280;68900;52.134;5.420;2023-12-04T16:25:40;100447.19;;;2.07;93.54
79455;BME280;68900;52.134;5.420;2023-12-04T16:28:07;100456.03;;;2.07;94.09
79455;BME280;68900;52.134;5.420;2023-12-04T16:30:38;100451.75;;;2.05;93.81
79455;BME280;68900;52.134;5.420;2023-12-04T16:33:07;100450.81;;;2.06;93.84
79455;BME280;68900;52.134;5.420;2023-12-04T16:35:35;100434.09;;;2.04;93.93
79455;BME280;68900;52.134;5.420;2023-12-04T16:38:02;100445.81;;;2.01;94.01
79455;BME280;68900;52.134;5.420;2023-12-04T16:40:34;100446.88;;;1.99;94.33
79455;BME280;68900;52.134;5.420;2023-12-04T16:43:02;100440.91;;;1.95;94.88
79455;BME280;68900;52.134;5.420;2023-12-04T16:45:29;100435.72;;;1.94;95.37
79455;BME280;68900;52.134;5.420;2023-12-04T16:47:56;100430.41;;;1.94;95.04
79455;BME280;68900;52.134;5.420;2023-12-04T16:50:23;100435.06;;;1.90;95.51
79455;BME280;68900;52.134;5.420;2023-12-04T16:52:50;100424.75;;;1.86;95.73
79455;BME280;68900;52.134;5.420;2023-12-04T16:55:18;100424.88;;;1.84;95.73
79455;BME280;68900;52.134;5.420;2023-12-04T16:57:48;100426.53;;;1.85;96.20
79455;BME280;68900;52.134;5.420;2023-12-04T17:00:15;100425.91;;;1.82;96.60
79455;BME280;68900;52.134;5.420;2023-12-04T17:02:42;100428.47;;;1.83;96.49
79455;BME280;68900;52.134;5.420;2023-12-04T17:05:27;100422.22;;;1.84;96.47
79455;BME280;68900;52.134;5.420;2023-12-04T17:07:55;100422.31;;;1.83;97.02
79455;BME280;68900;52.134;5.420;2023-12-04T17:10:22;100417.84;;;1.83;96.76
79455;BME280;68900;52.134;5.420;2023-12-04T17:12:49;100418.69;;;1.84;97.08
79455;BME280;68900;52.134;5.420;2023-12-04T17:15:15;100418.69;;;1.84;97.50
79455;BME280;68900;52.134;5.420;2023-12-04T17:17:43;100419.31;;;1.87;97.40
79455;BME280;68900;52.134;5.420;2023-12-04T17:20:10;100416.56;;;1.89;97.88
79455;BME280;68900;52.134;5.420;2023-12-04T17:22:44;100411.44;;;1.86;97.65
79455;BME280;68900;52.134;5.420;2023-12-04T17:25:11;100410.50;;;1.87;98.20
79455;BME280;68900;52.134;5.420;2023-12-04T17:27:38;100409.53;;;1.88;97.97
79455;BME280;68900;52.134;5.420;2023-12-04T17:30:05;100403.28;;;1.89;98.35
79455;BME280;68900;52.134;5.420;2023-12-04T17:32:32;100402.41;;;1.88;98.18
79455;BME280;68900;52.134;5.420;2023-12-04T17:34:59;100400.63;;;1.89;98.47
79455;BME280;68900;52.134;5.420;2023-12-04T17:37:25;100397.94;;;1.89;98.13
79455;BME280;68900;52.134;5.420;2023-12-04T17:39:53;100393.59;;;1.88;98.87
79455;BME280;68900;52.134;5.420;2023-12-04T18:49:45;100352.41;;;1.81;100.00
79455;BME280;68900;52.134;5.420;2023-12-04T18:52:13;100356.78;;;1.82;100.00
79455;BME280;68900;52.134;5.420;2023-12-04T19:01:24;100342.44;;;1.84;100.00
79455;BME280;68900;52.134;5.420;2023-12-04T19:03:54;100342.53;;;1.83;100.00
79455;BME280;68900;52.134;5.420;2023-12-04T19:06:21;100348.72;;;1.83;100.00
79455;BME280;68900;52.134;5.420;2023-12-04T19:08:49;100348.59;;;1.85;100.00
79455;BME280;68900;52.134;5.420;2023-12-04T19:11:15;100336.38;;;1.82;100.00
79455;BME280;68900;52.134;5.420;2023-12-04T19:13:42;100337.22;;;1.83;100.00
79455;BME280;68900;52.134;5.420;2023-12-04T19:16:09;100325.72;;;1.82;100.00
79455;BME280;68900;52.134;5.420;2023-12-04T19:18:35;100323.16;;;1.81;100.00
79455;BME280;68900;52.134;5.420;2023-12-04T19:21:04;100322.22;;;1.82;100.00
79455;BME280;68900;52.134;5.420;2023-12-04T19:23:31;100320.50;;;1.81;100.00
79455;BME280;68900;52.134;5.420;2023-12-04T19:25:57;100310.72;;;1.81;100.00